createdAt,value
2022-07-29T00:00:58.201Z,1.30
2022-07-29T00:03:24.701Z,1.25
2022-07-29T00:05:52.948Z,1.42
2022-07-29T00:08:19.396Z,1.75
2022-07-29T00:10:45.951Z,1.48
2022-07-29T00:13:12.469Z,1.80
2022-07-29T00:15:38.971Z,1.20
2022-07-29T00:18:05.477Z,1.40
2022-07-29T00:20:31.970Z,1.20
2022-07-29T00:22:58.447Z,1.65
2022-07-29T00:25:25.057Z,1.40
2022-07-29T00:27:51.488Z,1.60
2022-07-29T00:30:17.973Z,1.60
2022-07-29T00:32:44.400Z,1.90
2022-07-29T00:35:29.387Z,1.40
2022-07-29T00:37:55.822Z,1.35
2022-07-29T00:40:23.475Z,1.40
2022-07-29T00:42:53.355Z,1.60
2022-07-29T00:45:20.220Z,1.52
2022-07-29T00:47:47.637Z,1.60
2022-07-29T00:50:15.086Z,1.70
2022-07-29T00:52:42.939Z,1.52
2022-07-29T00:55:11.845Z,1.50
2022-07-29T00:57:39.142Z,1.50
2022-07-29T01:00:07.639Z,1.77
2022-07-29T01:02:34.149Z,1.50
2022-07-29T01:05:01.318Z,1.67
2022-07-29T01:07:28.714Z,1.58
2022-07-29T01:09:56.211Z,1.77
2022-07-29T01:12:25.828Z,1.83
2022-07-29T01:14:53.401Z,1.63
2022-07-29T01:17:53.646Z,1.70
2022-07-29T01:20:57.714Z,2.10
2022-07-29T01:23:42.022Z,1.20
2022-07-29T01:26:20.504Z,1.38
2022-07-29T01:29:06.098Z,1.52
2022-07-29T01:31:59.400Z,1.80
2022-07-29T01:34:44.831Z,1.60
2022-07-29T01:37:23.758Z,1.45
2022-07-29T01:39:52.704Z,2.35
2022-07-29T01:42:39.076Z,1.85
2022-07-29T01:45:21.315Z,2.00
2022-07-29T01:47:57.862Z,1.58
2022-07-29T01:50:34.105Z,2.35
2022-07-29T01:53:03.548Z,1.75
2022-07-29T01:55:33.217Z,2.22
2022-07-29T01:58:00.214Z,2.13
2022-07-29T02:00:27.735Z,2.08
2022-07-29T02:02:55.277Z,2.42
2022-07-29T02:05:23.177Z,1.52
2022-07-29T02:07:50.571Z,2.13
2022-07-29T02:10:20.454Z,2.45
2022-07-29T02:12:55.419Z,1.77
2022-07-29T02:15:24.337Z,1.90
2022-07-29T02:17:55.767Z,1.67
2022-07-29T02:20:23.463Z,1.52
2022-07-29T02:22:50.442Z,1.77
2022-07-29T02:25:17.448Z,1.75
2022-07-29T02:27:44.367Z,2.00
2022-07-29T02:30:11.660Z,1.88
2022-07-29T02:32:40.574Z,1.70
2022-07-29T02:35:09.187Z,1.88
2022-07-29T02:37:37.490Z,1.80
2022-07-29T02:40:04.886Z,1.63
2022-07-29T02:42:32.156Z,1.85
2022-07-29T02:44:58.650Z,1.88
2022-07-29T02:47:42.170Z,1.70
2022-07-29T02:50:13.029Z,1.80
2022-07-29T02:52:45.646Z,1.90
2022-07-29T02:55:18.820Z,1.80
2022-07-29T02:58:34.963Z,2.85
2022-07-29T03:01:04.660Z,2.10
2022-07-29T03:03:35.773Z,1.55
2022-07-29T03:06:03.646Z,1.98
2022-07-29T03:08:32.191Z,1.85
2022-07-29T03:10:58.968Z,1.70
2022-07-29T03:13:25.659Z,1.77
2022-07-29T03:15:52.749Z,1.85
2022-07-29T03:18:19.321Z,1.77
2022-07-29T03:20:45.930Z,1.80
2022-07-29T03:23:12.416Z,1.65
2022-07-29T03:25:38.891Z,1.80
2022-07-29T03:28:05.439Z,1.77
2022-07-29T03:30:32.192Z,1.60
2022-07-29T03:32:58.938Z,1.95
2022-07-29T03:35:25.693Z,1.77
2022-07-29T03:37:52.187Z,1.90
2022-07-29T03:40:27.093Z,1.60
2022-07-29T03:42:55.751Z,1.80
2022-07-29T03:45:22.841Z,1.83
2022-07-29T03:48:00.568Z,1.88
2022-07-29T03:50:28.787Z,1.80
2022-07-29T03:52:55.351Z,1.60
2022-07-29T03:55:22.166Z,1.83
2022-07-29T03:57:49.046Z,1.73
2022-07-29T04:00:18.925Z,2.00
2022-07-29T04:02:49.742Z,2.00
2022-07-29T04:05:19.166Z,1.90
2022-07-29T04:07:47.628Z,2.40
2022-07-29T04:10:16.432Z,1.77
2022-07-29T04:12:43.172Z,1.73
2022-07-29T04:15:10.111Z,1.60
2022-07-29T04:17:36.965Z,1.98
2022-07-29T04:20:04.692Z,1.83
2022-07-29T04:22:31.325Z,1.95
2022-07-29T04:25:03.254Z,1.90
2022-07-29T04:27:30.346Z,1.80
2022-07-29T04:29:57.600Z,1.80
2022-07-29T04:32:25.099Z,2.08
2022-07-29T04:34:52.046Z,2.00
2022-07-29T04:37:18.482Z,2.00
2022-07-29T04:39:44.986Z,2.03
2022-07-29T04:42:11.390Z,1.50
2022-07-29T04:44:39.717Z,1.80
2022-07-29T04:47:09.713Z,1.70
2022-07-29T04:49:38.915Z,2.33
2022-07-29T04:52:06.150Z,1.80
2022-07-29T04:54:32.570Z,1.80
2022-07-29T04:56:59.051Z,1.92
2022-07-29T04:59:27.541Z,1.85
2022-07-29T05:01:54.055Z,1.75
2022-07-29T05:04:20.970Z,1.70
2022-07-29T05:06:47.636Z,1.80
2022-07-29T05:09:14.129Z,1.80
2022-07-29T05:11:40.521Z,1.90
2022-07-29T05:14:06.963Z,1.65
2022-07-29T05:16:34.366Z,1.88
2022-07-29T05:19:00.833Z,1.67
2022-07-29T05:21:27.338Z,1.88
2022-07-29T05:23:53.786Z,1.75
2022-07-29T05:26:20.211Z,2.10
2022-07-29T05:28:46.677Z,2.10
2022-07-29T05:31:15.474Z,1.70
2022-07-29T05:33:42.414Z,1.50
2022-07-29T05:36:09.185Z,1.67
2022-07-29T05:38:36.572Z,1.92
2022-07-29T05:41:03.715Z,2.05
2022-07-29T05:43:30.826Z,1.58
2022-07-29T05:45:57.690Z,1.60
2022-07-29T05:48:24.264Z,1.92
2022-07-29T05:50:50.808Z,2.10
2022-07-29T05:53:19.921Z,1.90
2022-07-29T05:55:47.988Z,1.70
2022-07-29T05:58:14.499Z,1.90
2022-07-29T06:00:40.974Z,1.83
2022-07-29T06:03:07.562Z,1.88
2022-07-29T06:05:34.023Z,1.70
2022-07-29T06:08:00.528Z,2.22
2022-07-29T06:10:27.752Z,1.60
2022-07-29T06:12:54.388Z,1.92
2022-07-29T06:15:20.938Z,1.98
2022-07-29T06:18:00.838Z,1.88
2022-07-29T06:20:32.156Z,1.83
2022-07-29T06:22:59.287Z,2.28
2022-07-29T06:25:26.062Z,1.80
2022-07-29T06:27:53.123Z,1.92
2022-07-29T06:30:19.553Z,1.90
2022-07-29T06:32:45.999Z,2.00
2022-07-29T06:35:41.363Z,1.40
2022-07-29T06:37:59.863Z,2.15
2022-07-29T06:40:45.650Z,1.73
2022-07-29T06:43:12.303Z,2.33
2022-07-29T06:45:42.128Z,2.30
2022-07-29T06:48:09.506Z,2.63
2022-07-29T06:50:36.110Z,2.45
2022-07-29T06:53:02.600Z,2.33
2022-07-29T06:55:29.027Z,2.15
2022-07-29T06:57:55.454Z,2.10
2022-07-29T07:00:21.928Z,2.00
2022-07-29T07:02:48.839Z,2.22
2022-07-29T07:05:15.419Z,1.92
2022-07-29T07:07:41.907Z,2.53
2022-07-29T07:10:08.726Z,2.47
2022-07-29T07:12:35.134Z,1.92
2022-07-29T07:15:01.617Z,2.20
2022-07-29T07:17:28.080Z,2.17
2022-07-29T07:19:54.495Z,2.20
2022-07-29T07:22:20.967Z,2.40
2022-07-29T07:24:47.400Z,2.10
2022-07-29T07:27:14.021Z,1.92
2022-07-29T07:29:42.054Z,2.13
2022-07-29T07:32:10.800Z,2.33
2022-07-29T07:34:38.743Z,2.03
2022-07-29T07:37:06.020Z,2.45
2022-07-29T07:39:32.457Z,2.05
2022-07-29T07:41:58.908Z,2.17
2022-07-29T07:44:25.337Z,1.90
2022-07-29T07:46:51.862Z,1.95
2022-07-29T07:49:18.637Z,1.90
2022-07-29T07:51:50.522Z,2.20
2022-07-29T07:54:18.299Z,2.25
2022-07-29T07:56:49.850Z,2.10
2022-07-29T07:59:19.419Z,2.15
2022-07-29T08:01:48.397Z,2.63
2022-07-29T08:04:27.319Z,1.90
2022-07-29T08:06:57.458Z,2.20
2022-07-29T08:09:30.363Z,2.20
2022-07-29T08:11:57.891Z,2.47
2022-07-29T08:14:24.497Z,2.95
2022-07-29T08:16:51.911Z,2.45
2022-07-29T08:19:18.408Z,2.25
2022-07-29T08:21:44.899Z,2.75
2022-07-29T08:24:43.487Z,2.28
2022-07-29T08:27:40.752Z,2.63
2022-07-29T08:30:00.319Z,2.35
2022-07-29T08:32:52.039Z,2.20
2022-07-29T08:35:13.240Z,2.30
2022-07-29T08:37:39.658Z,1.63
2022-07-29T08:40:07.148Z,2.03
2022-07-29T08:42:33.611Z,2.03
2022-07-29T08:45:00.106Z,2.13
2022-07-29T08:47:27.985Z,2.13
2022-07-29T08:49:54.388Z,1.85
2022-07-29T08:52:21.311Z,2.17
2022-07-29T08:54:48.329Z,2.20
2022-07-29T08:57:15.373Z,2.25
2022-07-29T08:59:44.999Z,2.15
2022-07-29T09:02:25.449Z,1.95
2022-07-29T09:04:51.936Z,1.80
2022-07-29T09:07:19.450Z,2.00
2022-07-29T09:09:46.080Z,2.30
2022-07-29T09:12:13.073Z,2.28
2022-07-29T09:14:55.486Z,2.03
2022-07-29T09:17:40.591Z,2.30
2022-07-29T09:20:22.500Z,2.65
2022-07-29T09:22:50.371Z,2.03
2022-07-29T09:25:36.519Z,2.22
2022-07-29T09:28:10.051Z,2.20
2022-07-29T09:33:04.390Z,2.40
2022-07-29T09:35:31.769Z,2.53
2022-07-29T09:37:58.528Z,2.60
2022-07-29T09:40:27.525Z,1.92
2022-07-29T09:42:58.226Z,1.95
2022-07-29T09:45:32.806Z,2.17
2022-07-29T09:48:04.449Z,2.38
2022-07-29T09:50:38.504Z,2.85
2022-07-29T09:53:04.970Z,2.08
2022-07-29T09:55:31.408Z,2.03
2022-07-29T09:58:18.394Z,2.28
2022-07-29T10:00:46.488Z,1.95
2022-07-29T10:03:13.954Z,1.85
2022-07-29T10:05:41.787Z,2.30
2022-07-29T10:08:09.781Z,2.10
2022-07-29T10:10:38.837Z,2.70
2022-07-29T10:13:10.990Z,2.20
2022-07-29T10:15:45.143Z,1.92
2022-07-29T10:18:13.558Z,2.70
2022-07-29T10:20:40.368Z,2.50
2022-07-29T10:23:07.083Z,2.17
2022-07-29T10:25:33.626Z,2.10
2022-07-29T10:28:00.157Z,2.30
2022-07-29T10:30:27.587Z,2.50
2022-07-29T10:33:23.677Z,2.10
2022-07-29T10:35:55.482Z,2.08
2022-07-29T10:38:45.935Z,2.83
2022-07-29T10:41:27.721Z,2.30
2022-07-29T10:44:04.885Z,2.25
2022-07-29T10:46:39.347Z,2.15
2022-07-29T10:49:09.968Z,2.50
2022-07-29T10:52:06.138Z,2.13
2022-07-29T10:54:48.329Z,2.10
2022-07-29T10:57:15.486Z,2.05
2022-07-29T10:59:44.118Z,2.13
2022-07-29T11:05:31.948Z,2.08
2022-07-29T11:08:19.994Z,2.20
2022-07-29T11:10:49.064Z,2.42
2022-07-29T11:13:54.055Z,2.45
2022-07-29T11:16:26.473Z,2.42
2022-07-29T11:19:11.356Z,2.60
2022-07-29T11:21:54.953Z,2.80
2022-07-29T11:24:33.147Z,2.65
2022-07-29T11:27:14.853Z,2.50
2022-07-29T11:29:53.931Z,2.50
2022-07-29T11:32:22.781Z,2.45
2022-07-29T11:34:58.587Z,2.67
2022-07-29T11:37:28.349Z,2.47
2022-07-29T11:40:01.549Z,2.40
2022-07-29T11:45:41.247Z,3.03
2022-07-29T11:47:56.029Z,3.20
2022-07-29T11:50:41.162Z,3.00
2022-07-29T11:53:13.251Z,2.88
2022-07-29T11:55:50.824Z,2.95
2022-07-29T11:58:24.981Z,3.17
2022-07-29T12:00:52.504Z,3.05
2022-07-29T12:03:33.035Z,2.85
2022-07-29T12:06:02.388Z,3.10
2022-07-29T12:08:28.798Z,3.53
2022-07-29T12:10:55.343Z,2.55
2022-07-29T12:13:22.233Z,3.15
2022-07-29T12:15:59.686Z,2.65
2022-07-29T12:18:27.751Z,2.70
2022-07-29T12:20:59.246Z,2.38
2022-07-29T12:23:34.730Z,2.53
2022-07-29T12:26:07.483Z,3.00
2022-07-29T12:28:39.268Z,3.22
2022-07-29T12:31:05.905Z,3.28
2022-07-29T12:33:32.417Z,2.95
2022-07-29T12:36:12.851Z,2.95
2022-07-29T12:38:44.224Z,2.83
2022-07-29T12:41:29.989Z,2.78
2022-07-29T12:43:56.766Z,1.95
2022-07-29T12:46:23.260Z,2.28
2022-07-29T12:48:58.241Z,2.20
2022-07-29T12:51:35.572Z,2.03
2022-07-29T12:54:14.288Z,1.92
2022-07-29T12:56:43.636Z,2.30
2022-07-29T12:59:20.086Z,2.20
2022-07-29T13:01:48.963Z,2.03
2022-07-29T13:04:30.910Z,2.53
2022-07-29T13:07:06.361Z,1.95
2022-07-29T13:09:49.501Z,2.03
2022-07-29T13:12:16.108Z,2.03
2022-07-29T13:14:51.706Z,1.92
2022-07-29T13:17:28.272Z,1.70
2022-07-29T13:20:13.255Z,2.30
2022-07-29T13:22:40.917Z,2.00
2022-07-29T13:25:07.773Z,2.53
2022-07-29T13:27:37.189Z,2.03
2022-07-29T13:30:08.803Z,2.40
2022-07-29T13:32:35.871Z,1.67
2022-07-29T13:35:05.738Z,2.17
2022-07-29T13:37:34.946Z,2.83
2022-07-29T13:40:04.000Z,2.15
2022-07-29T13:42:30.603Z,2.00
2022-07-29T13:44:57.102Z,2.28
2022-07-29T13:47:32.142Z,1.88
2022-07-29T13:50:03.894Z,1.60
2022-07-29T13:52:32.588Z,1.80
2022-07-29T13:54:59.251Z,1.75
2022-07-29T13:57:25.745Z,2.10
2022-07-29T13:59:54.362Z,1.70
2022-07-29T14:02:21.516Z,2.55
2022-07-29T14:04:53.620Z,1.77
2022-07-29T14:07:20.096Z,1.98
2022-07-29T14:09:46.578Z,2.95
2022-07-29T14:12:13.055Z,2.00
2022-07-29T14:14:39.650Z,1.67
2022-07-29T14:17:07.369Z,2.20
2022-07-29T14:19:36.499Z,1.70
2022-07-29T14:22:04.546Z,2.40
2022-07-29T14:24:32.101Z,1.73
2022-07-29T14:26:59.259Z,1.80
2022-07-29T14:29:37.496Z,1.85
2022-07-29T14:32:08.455Z,2.40
2022-07-29T14:34:36.245Z,1.95
2022-07-29T14:37:05.920Z,2.80
2022-07-29T14:39:33.062Z,1.60
2022-07-29T14:42:00.341Z,2.28
2022-07-29T14:44:31.915Z,2.63
2022-07-29T14:47:01.588Z,1.92
2022-07-29T14:49:34.325Z,2.00
2022-07-29T14:52:01.192Z,1.90
2022-07-29T14:54:27.852Z,2.03
2022-07-29T14:56:57.732Z,2.42
2022-07-29T14:59:24.398Z,2.08
2022-07-29T15:01:50.917Z,1.95
2022-07-29T15:04:17.426Z,2.30
2022-07-29T15:06:43.990Z,1.77
2022-07-29T15:09:10.474Z,2.15
2022-07-29T15:11:38.515Z,2.15
2022-07-29T15:14:06.518Z,2.22
2022-07-29T15:16:33.243Z,1.98
2022-07-29T15:19:01.185Z,1.90
2022-07-29T15:21:28.033Z,1.88
2022-07-29T15:23:54.450Z,1.77
2022-07-29T15:26:21.009Z,1.80
2022-07-29T15:28:47.490Z,2.00
2022-07-29T15:31:14.074Z,1.98
2022-07-29T15:33:40.789Z,1.75
2022-07-29T15:36:07.349Z,1.80
2022-07-29T15:38:33.925Z,1.80
2022-07-29T15:41:00.638Z,1.80
2022-07-29T15:43:27.186Z,1.73
2022-07-29T15:46:11.957Z,2.05
2022-07-29T15:48:39.966Z,1.95
2022-07-29T15:51:06.501Z,1.92
2022-07-29T15:53:33.780Z,2.10
2022-07-29T15:56:02.057Z,1.73
2022-07-29T15:58:28.576Z,1.85
2022-07-29T16:00:55.077Z,1.80
2022-07-29T16:03:22.769Z,1.80
2022-07-29T16:05:49.302Z,2.10
2022-07-29T16:08:15.758Z,2.10
2022-07-29T16:10:42.213Z,1.80
2022-07-29T16:13:08.694Z,1.83
2022-07-29T16:15:35.322Z,1.90
2022-07-29T16:18:01.815Z,1.65
2022-07-29T16:20:29.574Z,2.28
2022-07-29T16:22:56.132Z,1.73
2022-07-29T16:25:38.441Z,2.15
2022-07-29T16:28:09.366Z,2.42
2022-07-29T16:30:36.335Z,2.58
2022-07-29T16:33:08.031Z,2.38
2022-07-29T16:35:39.727Z,2.15
2022-07-29T16:38:06.640Z,1.75
2022-07-29T16:40:33.098Z,2.10
2022-07-29T16:42:59.531Z,1.90
2022-07-29T16:45:26.176Z,2.08
2022-07-29T16:48:00.378Z,2.17
2022-07-29T16:50:28.751Z,1.88
2022-07-29T16:52:55.725Z,2.00
2022-07-29T16:55:22.235Z,2.00
2022-07-29T16:57:48.673Z,2.22
2022-07-29T17:00:16.647Z,2.70
2022-07-29T17:02:43.236Z,2.03
2022-07-29T17:05:10.735Z,1.98
2022-07-29T17:07:37.271Z,2.20
2022-07-29T17:10:05.142Z,1.90
2022-07-29T17:12:32.376Z,2.10
2022-07-29T17:14:58.837Z,2.42
2022-07-29T17:17:39.461Z,2.20
2022-07-29T17:20:11.942Z,2.05
2022-07-29T17:22:44.007Z,2.33
2022-07-29T17:25:10.598Z,2.03
2022-07-29T17:27:47.374Z,2.30
2022-07-29T17:30:13.886Z,2.22
2022-07-29T17:32:40.324Z,2.40
2022-07-29T17:35:27.646Z,1.90
2022-07-29T17:37:54.238Z,2.28
2022-07-29T17:40:20.713Z,2.30
2022-07-29T17:42:47.216Z,2.08
2022-07-29T17:45:13.746Z,2.50
2022-07-29T17:47:41.741Z,2.30
2022-07-29T17:50:08.532Z,2.30
2022-07-29T17:52:35.261Z,2.45
2022-07-29T17:55:02.476Z,2.13
2022-07-29T17:57:28.949Z,1.90
2022-07-29T17:59:55.477Z,2.45
2022-07-29T18:02:21.962Z,2.10
2022-07-29T18:04:51.494Z,2.20
2022-07-29T18:07:18.531Z,2.47
2022-07-29T18:09:45.166Z,2.67
2022-07-29T18:12:11.701Z,2.40
2022-07-29T18:14:38.499Z,2.25
2022-07-29T18:17:04.943Z,2.35
2022-07-29T18:19:31.377Z,2.92
2022-07-29T18:22:03.209Z,2.80
2022-07-29T18:24:32.218Z,2.20
2022-07-29T18:26:58.888Z,2.30
2022-07-29T18:29:25.602Z,2.75
2022-07-29T18:31:51.994Z,2.47
2022-07-29T18:34:18.405Z,2.50
2022-07-29T18:36:45.745Z,2.70
2022-07-29T18:39:19.187Z,3.58
2022-07-29T18:41:49.983Z,2.83
2022-07-29T18:44:17.573Z,2.53
2022-07-29T18:46:44.851Z,2.85
2022-07-29T18:49:14.173Z,3.40
2022-07-29T18:51:40.760Z,3.42
2022-07-29T18:54:09.059Z,2.90
2022-07-29T18:56:35.522Z,3.30
2022-07-29T18:59:02.922Z,2.67
2022-07-29T19:01:31.477Z,3.22
2022-07-29T19:03:58.876Z,2.88
2022-07-29T19:06:25.850Z,2.83
2022-07-29T19:08:52.760Z,2.70
2022-07-29T19:11:20.291Z,3.22
2022-07-29T19:13:46.930Z,2.95
2022-07-29T19:16:14.047Z,3.22
2022-07-29T19:18:41.256Z,2.88
2022-07-29T19:21:07.730Z,3.72
2022-07-29T19:24:05.243Z,3.35
2022-07-29T19:26:21.110Z,3.00
2022-07-29T19:28:49.158Z,3.10
2022-07-29T19:31:15.892Z,3.15
2022-07-29T19:33:42.608Z,2.85
2022-07-29T19:36:09.053Z,2.67
2022-07-29T19:38:35.561Z,2.75
2022-07-29T19:41:02.001Z,2.42
2022-07-29T19:43:50.632Z,2.65
2022-07-29T19:46:14.928Z,2.50
2022-07-29T19:48:41.407Z,2.67
2022-07-29T19:51:07.945Z,2.83
2022-07-29T19:53:34.411Z,2.80
2022-07-29T19:56:00.932Z,2.40
2022-07-29T19:58:27.921Z,3.35
2022-07-29T20:00:54.713Z,2.67
2022-07-29T20:03:21.249Z,2.80
2022-07-29T20:05:50.912Z,2.92
2022-07-29T20:08:18.046Z,3.63
2022-07-29T20:10:44.543Z,4.90
2022-07-29T20:13:11.014Z,4.30
2022-07-29T20:15:37.617Z,3.80
2022-07-29T20:18:04.477Z,4.65
2022-07-29T20:20:30.925Z,3.88
2022-07-29T20:22:57.436Z,3.50
2022-07-29T20:25:24.170Z,3.22
2022-07-29T20:27:52.330Z,2.75
2022-07-29T20:30:20.020Z,3.10
2022-07-29T20:32:47.977Z,3.17
2022-07-29T20:35:14.541Z,2.97
2022-07-29T20:37:52.107Z,3.08
2022-07-29T20:40:23.737Z,3.30
2022-07-29T20:42:50.152Z,3.50
2022-07-29T20:45:16.678Z,3.05
2022-07-29T20:47:43.138Z,3.42
2022-07-29T20:50:10.077Z,3.60
2022-07-29T20:52:36.537Z,3.47
2022-07-29T20:55:03.186Z,3.20
2022-07-29T20:57:39.442Z,3.28
2022-07-29T21:00:07.424Z,3.90
2022-07-29T21:02:33.959Z,4.10
2022-07-29T21:05:00.837Z,4.63
2022-07-29T21:07:27.295Z,3.60
2022-07-29T21:09:53.738Z,3.97
2022-07-29T21:12:20.170Z,3.72
2022-07-29T21:14:47.825Z,4.22
2022-07-29T21:17:15.804Z,3.58
2022-07-29T21:19:42.576Z,3.42
2022-07-29T21:22:09.132Z,4.03
2022-07-29T21:24:35.855Z,3.60
2022-07-29T21:27:21.880Z,3.58
2022-07-29T21:29:48.857Z,3.50
2022-07-29T21:32:27.681Z,3.20
2022-07-29T21:34:57.324Z,3.42
2022-07-29T21:37:23.806Z,3.42
2022-07-29T21:39:50.236Z,3.38
2022-07-29T21:42:16.912Z,3.78
2022-07-29T21:44:43.454Z,3.75
2022-07-29T21:47:11.557Z,4.38
2022-07-29T21:49:38.070Z,3.53
2022-07-29T21:52:05.000Z,4.53
2022-07-29T21:54:31.527Z,3.50
2022-07-29T21:56:58.409Z,4.00
2022-07-29T21:59:24.933Z,3.95
2022-07-29T22:01:51.633Z,4.07
2022-07-29T22:04:18.152Z,3.95
2022-07-29T22:06:44.657Z,3.17
2022-07-29T22:09:11.127Z,3.92
2022-07-29T22:11:37.647Z,4.10
2022-07-29T22:14:05.201Z,3.63
2022-07-29T22:16:31.781Z,4.00
2022-07-29T22:18:58.248Z,4.13
2022-07-29T22:21:24.733Z,4.28
2022-07-29T22:23:51.149Z,4.30
2022-07-29T22:26:17.649Z,4.00
2022-07-29T22:28:44.107Z,4.20
2022-07-29T22:31:10.688Z,4.50
2022-07-29T22:33:37.175Z,4.43
2022-07-29T22:36:03.850Z,4.55
2022-07-29T22:38:30.258Z,4.13
2022-07-29T22:41:00.566Z,4.38
2022-07-29T22:43:28.244Z,4.30
2022-07-29T22:45:54.747Z,4.60
2022-07-29T22:48:21.306Z,4.82
2022-07-29T22:50:47.793Z,4.68
2022-07-29T22:53:14.253Z,4.70
2022-07-29T22:55:40.731Z,4.40
2022-07-29T22:58:07.168Z,4.18
2022-07-29T23:00:33.684Z,4.60
2022-07-29T23:03:00.130Z,5.05
2022-07-29T23:05:26.824Z,4.55
2022-07-29T23:07:53.301Z,5.72
2022-07-29T23:10:20.502Z,4.78
2022-07-29T23:12:46.943Z,5.30
2022-07-29T23:15:13.416Z,5.00
2022-07-29T23:17:39.829Z,4.47
2022-07-29T23:20:07.948Z,4.97
2022-07-29T23:22:35.553Z,4.13
2022-07-29T23:25:02.147Z,4.82
2022-07-29T23:27:28.589Z,4.50
2022-07-29T23:29:55.216Z,4.90
2022-07-29T23:32:21.731Z,5.00
2022-07-29T23:34:48.178Z,5.15
2022-07-29T23:37:14.636Z,4.57
2022-07-29T23:39:41.054Z,4.75
2022-07-29T23:42:07.495Z,4.43
2022-07-29T23:44:33.966Z,4.80
2022-07-29T23:47:00.609Z,5.20
2022-07-29T23:49:27.246Z,4.97
2022-07-29T23:51:53.681Z,5.00
2022-07-29T23:54:20.078Z,5.15
2022-07-29T23:56:46.586Z,5.57
2022-07-29T23:59:13.074Z,5.55
